Time;durP1;ratioP1;P1;durP2;ratioP2;P2;SDS_P1;SDS_P2;PMS_P1;PMS_P2;Temp;Humidity;BMP_temperature;BMP_pressure;BME280_temperature;BME280_humidity;BME280_pressure;Samples;Min_cycle;Max_cycle;Signal;HPM_P1;HPM_P2
2022/09/15 00:01:47;;;;;;;;;3.00;1.75;;;;;20.59;74.85;98786.19;5001962;28;45470;-61
2022/09/15 00:04:13;;;;;;;;;1.50;1.00;;;;;20.57;74.84;98786.31;5006694;28;46315;-61
2022/09/15 00:06:38;;;;;;;;;2.00;2.00;;;;;20.59;75.58;98780.81;5006743;28;45386;-61
2022/09/15 00:09:04;;;;;;;;;3.00;1.75;;;;;20.58;74.83;98776.44;5005539;28;45206;-61
2022/09/15 00:11:32;;;;;;;;;2.00;2.00;;;;;20.55;75.77;98773.03;5000879;28;45555;-61
2022/09/15 00:14:02;;;;;;;;;1.00;1.00;;;;;20.55;75.30;98774.88;5003412;28;46538;-61
2022/09/15 00:16:29;;;;;;;;;1.00;1.00;;;;;20.53;75.37;98760.75;5009213;28;45393;-61
2022/09/15 00:18:55;;;;;;;;;2.40;2.40;;;;;20.51;75.20;98757.38;5011144;28;45463;-61
2022/09/15 00:21:24;;;;;;;;;2.50;1.00;;;;;20.52;75.12;98759.91;5004353;28;45431;-60
2022/09/15 00:23:50;;;;;;;;;3.80;2.00;;;;;20.54;75.96;98757.09;4988483;28;47278;-61
2022/09/15 00:26:19;;;;;;;;;1.00;0.75;;;;;20.53;75.36;98760.75;5002016;28;45450;-61
2022/09/15 00:28:45;;;;;;;;;1.00;1.00;;;;;20.54;75.93;98754.44;5003039;28;45390;-61
2022/09/15 00:31:14;;;;;;;;;4.00;2.00;;;;;20.54;76.00;98755.28;4982416;28;45440;-61
2022/09/15 00:33:39;;;;;;;;;1.00;1.00;;;;;20.54;75.95;98747.25;4994965;28;45816;-59
2022/09/15 00:36:08;;;;;;;;;3.25;2.00;;;;;20.53;76.27;98740.19;4981805;28;45533;-62
2022/09/15 00:38:34;;;;;;;;;1.40;1.00;;;;;20.52;76.07;98741.16;5004492;28;45398;-61
2022/09/15 00:41:01;;;;;;;;;1.00;1.00;;;;;20.49;76.21;98728.03;5010312;28;45543;-62
2022/09/15 00:43:58;;;;;;;;;2.00;2.00;;;;;20.47;76.67;98721.13;5014136;28;45682;-62
2022/09/15 00:46:51;;;;;;;;;2.00;0.20;;;;;20.43;76.65;98714.34;5001985;28;45738;-61
2022/09/15 00:49:33;;;;;;;;;1.60;1.60;;;;;20.42;76.73;98720.69;5008711;28;45470;-61
2022/09/15 00:52:10;;;;;;;;;2.00;1.00;;;;;20.41;77.80;98717.16;5006240;28;45164;-61
2022/09/15 00:54:42;;;;;;;;;2.80;1.20;;;;;20.40;77.52;98714.59;5009353;28;45643;-61
2022/09/15 00:57:13;;;;;;;;;2.00;2.00;;;;;20.37;77.24;98713.03;4989536;28;45538;-61
2022/09/15 00:59:40;;;;;;;;;2.00;1.00;;;;;20.34;76.31;98704.38;5003469;28;45464;-61
2022/09/15 01:02:19;;;;;;;;;2.00;2.00;;;;;20.31;77.00;98716.22;5009563;28;45454;-61
2022/09/15 01:04:45;;;;;;;;;1.80;1.40;;;;;20.28;78.89;98712.94;4996512;28;47098;-61
2022/09/15 01:07:15;;;;;;;;;2.50;1.25;;;;;20.27;78.43;98708.59;4991221;28;45379;-61
2022/09/15 01:09:50;;;;;;;;;3.20;2.00;;;;;20.25;78.44;98706.03;4999732;28;45488;-61
2022/09/15 01:12:15;;;;;;;;;1.00;1.00;;;;;20.24;79.54;98700.81;4994010;28;45523;-61
2022/09/15 01:14:41;;;;;;;;;1.75;1.75;;;;;20.23;78.81;98699.97;4998299;28;45816;-61
2022/09/15 01:17:17;;;;;;;;;1.00;1.00;;;;;20.22;79.19;98698.28;5014595;28;45397;-61
2022/09/15 01:20:20;;;;;;;;;1.60;1.60;;;;;20.23;79.91;98696.44;5012776;28;45518;-61
2022/09/15 01:23:04;;;;;;;;;1.80;0.40;;;;;20.24;79.30;98685.59;5013142;28;45464;-61
2022/09/15 01:25:36;;;;;;;;;2.00;0.00;;;;;20.19;78.91;98686.00;5003139;28;46296;-60
2022/09/15 01:28:32;;;;;;;;;2.40;2.00;;;;;20.17;78.85;98689.78;5010282;28;45235;-60
2022/09/15 01:31:22;;;;;;;;;1.20;1.20;;;;;20.17;79.43;98687.97;5005501;28;45475;-60
2022/09/15 01:33:57;;;;;;;;;1.80;1.80;;;;;20.19;79.07;98687.81;5007284;28;45389;-60
2022/09/15 01:36:35;;;;;;;;;1.40;1.40;;;;;20.15;78.63;98691.75;5003865;28;46313;-60
2022/09/15 01:39:24;;;;;;;;;1.40;1.00;;;;;20.13;79.19;98677.63;4999481;28;45533;-60
2022/09/15 01:41:55;;;;;;;;;1.00;1.00;;;;;20.11;78.47;98669.75;5005573;28;45499;-60
2022/09/15 01:44:28;;;;;;;;;1.60;1.60;;;;;20.08;79.30;98671.84;5004706;28;45478;-61
2022/09/15 01:46:59;;;;;;;;;1.40;1.40;;;;;20.07;79.94;98662.97;5004471;28;46057;-62
2022/09/15 01:49:29;;;;;;;;;1.80;1.80;;;;;20.08;80.19;98655.81;5014422;28;45419;-61
2022/09/15 01:51:55;;;;;;;;;1.20;1.20;;;;;20.09;79.65;98658.34;5003533;28;45428;-61
2022/09/15 01:54:25;;;;;;;;;2.00;2.00;;;;;20.10;79.95;98654.69;5012119;28;45405;-61
2022/09/15 01:56:51;;;;;;;;;2.00;2.00;;;;;20.11;80.16;98645.66;5002584;28;46682;-61
2022/09/15 01:59:16;;;;;;;;;2.00;2.00;;;;;20.14;79.61;98631.16;5011252;28;45566;-61
2022/09/15 02:01:53;;;;;;;;;4.00;3.00;;;;;20.15;78.81;98631.03;5021741;28;45552;-61
2022/09/15 02:04:38;;;;;;;;;3.00;2.75;;;;;20.17;77.06;98637.09;5004263;28;45456;-61
2022/09/15 02:07:19;;;;;;;;;2.80;2.00;;;;;20.20;76.12;98638.66;5007943;28;46391;-60
2022/09/15 02:10:20;;;;;;;;;3.20;3.20;;;;;20.24;75.85;98639.25;4998821;28;45375;-61
2022/09/15 02:13:15;;;;;;;;;2.40;2.00;;;;;20.28;76.42;98648.69;5000184;28;45440;-60
2022/09/15 02:15:47;;;;;;;;;2.00;2.00;;;;;20.31;76.36;98646.59;4974042;28;45768;-61
2022/09/15 02:18:21;;;;;;;;;3.40;2.80;;;;;20.31;76.34;98640.41;5024729;28;46607;-61
2022/09/15 02:20:59;;;;;;;;;2.80;2.80;;;;;20.30;76.71;98642.22;5010147;28;45489;-61
2022/09/15 02:23:34;;;;;;;;;4.00;2.80;;;;;20.32;76.69;98637.59;5016026;28;45418;-61
2022/09/15 02:26:08;;;;;;;;;3.20;2.00;;;;;20.35;76.84;98633.78;5008015;28;45415;-62
2022/09/15 02:28:37;;;;;;;;;3.20;2.00;;;;;20.36;76.68;98631.03;5012938;28;45698;-62
2022/09/15 02:31:07;;;;;;;;;3.00;2.00;;;;;20.37;76.36;98623.84;5004102;28;45449;-62
2022/09/15 02:33:39;;;;;;;;;2.20;1.20;;;;;20.37;77.25;98621.16;5014984;28;45544;-62
2022/09/15 02:36:08;;;;;;;;;4.60;2.60;;;;;20.38;78.10;98623.69;5002371;28;45421;-62
2022/09/15 02:38:41;;;;;;;;;3.40;3.40;;;;;20.40;77.98;98623.56;5008359;28;45629;-61
2022/09/15 02:41:07;;;;;;;;;1.80;1.80;;;;;20.40;77.90;98621.75;4998630;28;45484;-61
2022/09/15 02:43:33;;;;;;;;;4.00;2.75;;;;;20.41;78.20;98620.75;4999390;28;45529;-61
2022/09/15 02:45:58;;;;;;;;;3.00;3.00;;;;;20.44;78.96;98623.13;4984485;28;45341;-61
2022/09/15 02:48:24;;;;;;;;;1.00;1.00;;;;;20.42;77.94;98625.13;5008975;28;46295;-61
2022/09/15 02:50:50;;;;;;;;;3.00;2.00;;;;;20.38;78.32;98633.56;5010611;28;45359;-61
2022/09/15 02:53:15;;;;;;;;;1.75;1.75;;;;;20.35;77.84;98631.97;5005607;28;45535;-60
2022/09/15 02:55:41;;;;;;;;;1.00;1.00;;;;;20.34;76.81;98629.41;5006461;28;45443;-61
2022/09/15 02:58:06;;;;;;;;;1.00;1.00;;;;;20.29;77.44;98618.25;5007935;28;45557;-60
2022/09/15 03:00:31;;;;;;;;;2.00;2.00;;;;;20.28;77.19;98622.75;4997348;28;45601;-61
2022/09/15 03:02:57;;;;;;;;;1.75;1.75;;;;;20.30;77.40;98617.28;5008898;28;45828;-62
2022/09/15 03:05:25;;;;;;;;;1.75;1.75;;;;;20.29;76.80;98615.59;5000603;28;45565;-63
2022/09/15 03:07:51;;;;;;;;;2.00;2.00;;;;;20.29;77.26;98618.25;5004697;28;47019;-63
2022/09/15 03:10:17;;;;;;;;;5.75;3.00;;;;;20.26;77.47;98615.88;5016760;28;45481;-62
2022/09/15 03:12:48;;;;;;;;;2.50;2.00;;;;;20.23;76.61;98624.16;5007507;28;45569;-63
2022/09/15 03:15:15;;;;;;;;;2.20;2.00;;;;;20.23;77.10;98613.47;4997067;28;45514;-62
2022/09/15 03:17:42;;;;;;;;;3.20;2.00;;;;;20.24;76.97;98610.66;4992510;28;47735;-63
2022/09/15 03:20:10;;;;;;;;;2.40;2.00;;;;;20.27;77.46;98599.69;5004283;28;45428;-62
2022/09/15 03:22:36;;;;;;;;;2.00;2.00;;;;;20.27;76.92;98604.19;4989166;28;45389;-62
2022/09/15 03:25:04;;;;;;;;;3.00;2.75;;;;;20.22;78.25;98607.25;4991760;28;45559;-62
2022/09/15 03:27:30;;;;;;;;;3.60;3.20;;;;;20.18;78.50;98601.31;5010506;28;46512;-62
2022/09/15 03:29:55;;;;;;;;;3.50;3.25;;;;;20.17;78.32;98591.59;5004823;28;45931;-62
2022/09/15 03:32:21;;;;;;;;;2.75;2.50;;;;;20.10;78.52;98594.97;5002086;28;45837;-62
2022/09/15 03:34:46;;;;;;;;;3.00;3.00;;;;;20.05;79.29;98595.34;5004814;28;45440;-62
2022/09/15 03:37:11;;;;;;;;;3.00;3.00;;;;;19.99;79.54;98595.88;5004654;28;45523;-61
2022/09/15 03:39:37;;;;;;;;;3.00;2.00;;;;;19.96;80.07;98609.50;5013939;28;45275;-61
2022/09/15 03:42:03;;;;;;;;;4.25;2.00;;;;;19.94;80.65;98616.00;5004789;28;45445;-62
2022/09/15 03:44:28;;;;;;;;;4.00;2.25;;;;;19.90;81.00;98618.09;5008787;28;45543;-62
2022/09/15 03:46:54;;;;;;;;;3.25;2.50;;;;;19.90;80.37;98614.56;5005709;28;45530;-61
2022/09/15 03:49:19;;;;;;;;;1.75;1.75;;;;;19.86;80.33;98612.16;5006820;28;45461;-61
2022/09/15 03:51:45;;;;;;;;;4.00;2.00;;;;;19.86;80.66;98605.94;5005184;28;45353;-61
2022/09/15 03:54:10;;;;;;;;;1.00;1.00;;;;;19.82;80.09;98604.50;5002177;28;45323;-61
2022/09/15 03:56:36;;;;;;;;;1.00;1.00;;;;;19.79;80.37;98597.59;5005939;28;45346;-61
2022/09/15 03:59:04;;;;;;;;;2.60;2.60;;;;;19.75;80.70;98596.19;5007144;28;45511;-60
2022/09/15 04:01:30;;;;;;;;;2.00;2.00;;;;;19.74;80.35;98604.34;5000916;28;45592;-61
2022/09/15 04:03:56;;;;;;;;;3.80;2.20;;;;;19.71;80.02;98596.56;5011099;28;45470;-61
2022/09/15 04:06:22;;;;;;;;;4.60;1.40;;;;;19.67;79.53;98601.34;5004795;28;46090;-61
2022/09/15 04:08:48;;;;;;;;;3.25;3.25;;;;;19.66;79.15;98606.81;5004774;28;45404;-61
2022/09/15 04:11:15;;;;;;;;;2.00;2.00;;;;;19.63;79.87;98604.41;5017802;28;45521;-62
2022/09/15 04:13:41;;;;;;;;;2.20;2.20;;;;;19.62;80.32;98600.88;5012039;28;45541;-62
2022/09/15 04:16:11;;;;;;;;;3.00;1.75;;;;;19.62;79.85;98602.69;5010679;28;46339;-62
2022/09/15 04:18:36;;;;;;;;;3.00;1.20;;;;;19.61;80.37;98601.84;5020609;28;45441;-62
2022/09/15 04:21:14;;;;;;;;;3.00;3.00;;;;;19.60;80.42;98599.34;5007226;28;45475;-62
2022/09/15 04:23:41;;;;;;;;;5.00;3.00;;;;;19.56;80.59;98598.75;5018049;28;45319;-62
2022/09/15 04:26:17;;;;;;;;;3.00;3.00;;;;;19.55;80.20;98610.41;5009786;28;45469;-61
2022/09/15 04:28:42;;;;;;;;;4.40;3.00;;;;;19.50;80.33;98597.41;5011145;28;45448;-61
2022/09/15 04:31:11;;;;;;;;;1.50;1.50;;;;;19.48;80.89;98599.34;5015441;28;45868;-62
2022/09/15 04:33:38;;;;;;;;;2.50;2.50;;;;;19.44;81.13;98603.25;5006257;28;45627;-61
2022/09/15 04:36:10;;;;;;;;;3.60;3.00;;;;;19.41;81.39;98608.03;5015414;28;45303;-61
2022/09/15 04:38:36;;;;;;;;;2.00;2.00;;;;;19.40;81.70;98603.66;5008492;28;45524;-61
2022/09/15 04:41:02;;;;;;;;;3.25;3.00;;;;;19.40;81.54;98603.66;4997346;28;45472;-61
2022/09/15 04:43:28;;;;;;;;;4.00;4.00;;;;;19.40;81.93;98604.50;4997905;28;45357;-61
2022/09/15 04:45:54;;;;;;;;;3.00;3.00;;;;;19.39;82.42;98608.16;5006584;28;45580;-61
2022/09/15 04:48:22;;;;;;;;;3.00;3.00;;;;;19.40;81.95;98595.63;5004068;28;45462;-61
2022/09/15 04:50:48;;;;;;;;;5.80;3.40;;;;;19.39;82.48;98601.97;5008744;28;45378;-61
2022/09/15 04:53:14;;;;;;;;;4.50;4.00;;;;;19.37;82.43;98593.22;4997240;28;45430;-62
2022/09/15 04:55:39;;;;;;;;;4.00;4.00;;;;;19.33;82.04;98595.28;4997041;28;46202;-62
2022/09/15 04:58:05;;;;;;;;;4.75;4.75;;;;;19.30;82.55;98597.38;4979283;28;45454;-64
2022/09/15 05:00:38;;;;;;;;;4.50;4.50;;;;;19.28;82.89;98602.00;4998361;28;45368;-62
2022/09/15 05:03:03;;;;;;;;;3.00;3.00;;;;;19.26;82.86;98603.97;4996881;28;45541;-61
2022/09/15 05:05:29;;;;;;;;;4.00;4.00;;;;;19.25;83.09;98605.81;4997458;28;46117;-61
2022/09/15 05:07:54;;;;;;;;;5.50;5.50;;;;;19.21;83.35;98612.38;4979297;28;45388;-61
2022/09/15 05:10:19;;;;;;;;;4.25;4.25;;;;;19.19;83.17;98598.28;5002755;28;45351;-59
2022/09/15 05:12:45;;;;;;;;;4.00;4.00;;;;;19.17;83.17;98600.22;5001155;28;45582;-62
2022/09/15 05:15:11;;;;;;;;;7.25;7.00;;;;;19.14;84.11;98603.16;4997268;28;46329;-61
2022/09/15 05:17:36;;;;;;;;;5.00;5.00;;;;;19.11;83.87;98606.06;4997274;28;45495;-61
2022/09/15 05:20:03;;;;;;;;;5.75;4.50;;;;;19.10;84.32;98601.72;4996569;28;45469;-61
2022/09/15 05:22:29;;;;;;;;;6.25;6.00;;;;;19.12;84.17;98610.44;4997190;28;45351;-61
2022/09/15 05:24:55;;;;;;;;;5.00;5.00;;;;;19.09;83.77;98614.25;4978660;28;45462;-61
2022/09/15 05:27:20;;;;;;;;;4.75;4.25;;;;;19.07;84.32;98620.69;4995417;28;45345;-61
2022/09/15 05:29:46;;;;;;;;;5.50;5.00;;;;;19.06;84.78;98619.00;4996543;28;46063;-59
2022/09/15 05:32:11;;;;;;;;;8.75;5.75;;;;;19.07;85.42;98621.53;4997447;28;45300;-61
2022/09/15 05:34:36;;;;;;;;;6.75;4.00;;;;;19.08;85.10;98620.56;4996635;28;46303;-61
2022/09/15 05:37:02;;;;;;;;;5.75;5.00;;;;;19.10;84.73;98631.94;4997209;28;45330;-61
2022/09/15 05:39:28;;;;;;;;;7.50;4.00;;;;;19.13;84.80;98633.53;4998251;28;45432;-61
2022/09/15 05:41:54;;;;;;;;;3.50;2.75;;;;;19.15;84.43;98631.56;5015789;28;45447;-61
2022/09/15 05:44:20;;;;;;;;;1.00;1.00;;;;;19.15;83.93;98634.25;5015757;28;46475;-61
2022/09/15 05:46:46;;;;;;;;;7.20;7.20;;;;;19.16;84.03;98639.47;5015678;28;45472;-64
2022/09/15 05:49:12;;;;;;;;;4.00;4.00;;;;;19.20;83.71;98628.53;5011588;28;45559;-62
2022/09/15 05:51:37;;;;;;;;;3.25;3.00;;;;;19.25;83.68;98632.53;5015212;28;45446;-75
2022/09/15 05:54:02;;;;;;;;;3.25;3.25;;;;;19.33;83.68;98632.72;5015285;28;45421;-62
2022/09/15 05:56:28;;;;;;;;;416.67;323.67;;;;;19.42;82.87;98637.31;5015494;28;45395;-62
2022/09/15 05:58:53;;;;;;;;;4.00;3.25;;;;;19.55;82.47;98638.97;5013287;28;45338;-61
2022/09/15 06:01:25;;;;;;;;;9.00;4.00;;;;;19.64;81.77;98643.53;4993331;28;45435;-61
2022/09/15 06:03:51;;;;;;;;;4.80;4.80;;;;;19.69;82.02;98654.69;5010593;28;45784;-66
2022/09/15 06:06:17;;;;;;;;;4.00;3.80;;;;;19.77;81.82;98657.59;5013827;28;45367;-67
2022/09/15 06:08:47;;;;;;;;;5.80;5.80;;;;;19.86;81.05;98657.63;5002892;28;45509;-64
2022/09/15 06:11:18;;;;;;;;;5.40;4.00;;;;;19.92;80.66;98658.94;5008847;28;45585;-72
2022/09/15 06:13:45;;;;;;;;;4.00;4.00;;;;;19.94;80.42;98667.66;5012240;28;46576;-63
2022/09/15 06:16:13;;;;;;;;;4.20;4.20;;;;;19.97;80.11;98667.41;4997082;28;45445;-71
2022/09/15 06:18:40;;;;;;;;;3.40;3.40;;;;;19.99;79.81;98669.94;5104855;23;45495;-60
2022/09/15 06:21:15;;;;;;;;;5.00;5.00;;;;;19.98;79.16;98674.47;4995765;28;45344;-65
2022/09/15 06:23:42;;;;;;;;;5.00;4.40;;;;;19.93;80.09;98670.50;4978768;28;47591;-63
2022/09/15 06:26:17;;;;;;;;;4.40;4.00;;;;;19.88;80.00;98665.53;5005402;28;45525;-68
2022/09/15 06:28:48;;;;;;;;;3.40;3.00;;;;;19.84;79.04;98661.41;5006879;28;45698;-66
2022/09/15 06:31:13;;;;;;;;;4.00;3.20;;;;;19.82;78.28;98668.72;5014854;28;45418;-61
2022/09/15 06:33:45;;;;;;;;;6.75;6.00;;;;;19.82;79.39;98671.41;5014532;28;45494;-62
2022/09/15 06:36:12;;;;;;;;;4.00;4.00;;;;;19.88;79.10;98678.91;5013798;28;45502;-67
2022/09/15 06:38:38;;;;;;;;;7.20;6.00;;;;;19.93;79.08;98671.34;5013898;28;45417;-64
2022/09/15 06:41:04;;;;;;;;;6.00;4.25;;;;;20.00;78.63;98677.84;5012906;28;45485;-69
2022/09/15 06:43:31;;;;;;;;;3.20;3.20;;;;;20.03;78.28;98666.03;5009684;28;45775;-72
2022/09/15 06:46:11;;;;;;;;;3.60;3.40;;;;;20.09;77.36;98677.06;5011982;28;45218;-72
2022/09/15 06:48:38;;;;;;;;;4.80;4.80;;;;;20.14;76.96;98668.63;4994678;28;45416;-71
2022/09/15 06:51:05;;;;;;;;;3.80;3.80;;;;;20.19;77.25;98677.97;5014820;28;45489;-73
2022/09/15 06:53:32;;;;;;;;;5.50;4.00;;;;;20.24;76.97;98677.56;4996686;28;47539;-73
2022/09/15 06:56:05;;;;;;;;;4.00;4.00;;;;;20.27;77.81;98690.72;4996019;28;45332;-68
2022/09/15 06:58:33;;;;;;;;;5.60;5.00;;;;;20.27;77.89;98693.38;5013711;28;45418;-72
2022/09/15 07:01:04;;;;;;;;;6.00;4.50;;;;;20.29;75.53;98687.88;4983645;28;45462;-72
2022/09/15 07:03:30;;;;;;;;;12.75;8.00;;;;;20.30;75.51;98693.09;5011577;28;45476;-70
2022/09/15 07:05:55;;;;;;;;;13.00;12.25;;;;;20.34;75.25;98693.69;5014566;28;45526;-68
2022/09/15 07:08:21;;;;;;;;;4.75;4.00;;;;;20.34;75.43;98694.53;5001357;28;45393;-69
2022/09/15 07:10:47;;;;;;;;;4.25;4.25;;;;;20.37;75.10;98693.44;5013537;28;45373;-63
2022/09/15 07:13:12;;;;;;;;;5.75;5.50;;;;;20.41;75.08;98695.75;5014581;28;46132;-68
2022/09/15 07:15:38;;;;;;;;;10.75;7.00;;;;;20.47;74.95;98703.22;5011282;28;45497;-70
2022/09/15 07:18:04;;;;;;;;;9.00;8.75;;;;;20.57;74.54;98705.09;4990446;28;45502;-66
2022/09/15 07:20:30;;;;;;;;;12.00;11.25;;;;;20.66;74.25;98704.28;5013758;28;45480;-73
2022/09/15 07:22:55;;;;;;;;;11.50;11.00;;;;;20.68;74.21;98707.69;5013439;28;45667;-72
2022/09/15 07:25:20;;;;;;;;;7.75;7.25;;;;;20.73;73.91;98719.69;5012612;28;45524;-72
2022/09/15 07:27:46;;;;;;;;;5.50;5.50;;;;;20.77;73.54;98714.91;5010154;28;45454;-70
2022/09/15 07:30:12;;;;;;;;;6.25;4.50;;;;;20.82;73.62;98720.69;5013054;28;45613;-71
2022/09/15 07:32:38;;;;;;;;;6.60;4.60;;;;;20.86;73.78;98724.81;5011451;28;45524;-71
2022/09/15 07:35:05;;;;;;;;;5.60;4.20;;;;;20.88;72.95;98726.38;5011250;28;45471;-58
2022/09/15 07:37:32;;;;;;;;;9.20;5.00;;;;;20.90;72.93;98727.09;5006110;28;45506;-71
2022/09/15 07:39:57;;;;;;;;;4.75;4.00;;;;;20.98;72.93;98728.22;5009748;28;45530;-74
2022/09/15 07:42:23;;;;;;;;;7.25;7.00;;;;;21.01;72.41;98731.47;5013895;28;45232;-74
2022/09/15 07:44:48;;;;;;;;;3.00;3.00;;;;;21.06;72.30;98726.56;5013150;28;45339;-65
2022/09/15 07:47:14;;;;;;;;;5.00;5.00;;;;;21.14;71.96;98731.22;5010331;28;45517;-65
2022/09/15 07:49:39;;;;;;;;;6.50;5.75;;;;;21.21;71.71;98732.41;5007313;28;45477;-64
2022/09/15 07:52:05;;;;;;;;;9.25;6.25;;;;;21.28;70.75;98732.72;5012460;28;46452;-69
2022/09/15 07:54:30;;;;;;;;;4.00;4.00;;;;;21.35;70.19;98729.34;5013824;28;45289;-66
2022/09/15 07:56:55;;;;;;;;;4.50;3.00;;;;;21.42;69.35;98732.31;4994063;28;45451;-66
2022/09/15 07:59:21;;;;;;;;;6.50;4.00;;;;;21.50;70.72;98729.78;5013978;28;45346;-66
2022/09/15 08:01:46;;;;;;;;;4.50;4.50;;;;;21.58;71.32;98729.94;5013727;28;45506;-66
2022/09/15 08:04:12;;;;;;;;;4.50;3.00;;;;;21.61;70.77;98726.97;5012371;28;45415;-66
2022/09/15 08:06:37;;;;;;;;;3.25;3.25;;;;;21.59;71.04;98735.16;5010504;28;45541;-66
2022/09/15 08:09:03;;;;;;;;;6.50;4.50;;;;;21.63;71.13;98745.59;5007044;28;45327;-66
2022/09/15 08:11:28;;;;;;;;;5.00;5.00;;;;;21.68;70.99;98743.34;5012791;28;45585;-66
2022/09/15 08:13:54;;;;;;;;;4.00;4.00;;;;;21.75;70.51;98741.81;5005166;28;45362;-66
2022/09/15 08:16:22;;;;;;;;;4.00;4.00;;;;;21.82;70.50;98743.78;5013593;28;45450;-66
2022/09/15 08:18:48;;;;;;;;;4.75;4.00;;;;;21.85;70.19;98748.84;5000372;28;45563;-66
2022/09/15 08:21:21;;;;;;;;;3.80;2.80;;;;;21.89;69.64;98746.75;5013614;28;45681;-66
2022/09/15 08:23:55;;;;;;;;;3.80;2.20;;;;;21.97;69.59;98759.44;5013356;28;45350;-66
2022/09/15 08:26:21;;;;;;;;;7.40;7.40;;;;;22.06;69.83;98759.47;5012961;28;45192;-66
2022/09/15 08:28:47;;;;;;;;;5.00;3.00;;;;;22.16;69.45;98754.94;5009118;28;45374;-66
2022/09/15 08:31:13;;;;;;;;;3.00;3.00;;;;;22.25;68.91;98755.94;5009391;28;45477;-66
2022/09/15 08:33:39;;;;;;;;;4.00;4.00;;;;;22.32;69.26;98748.13;5012753;28;45375;-66
2022/09/15 08:36:12;;;;;;;;;6.75;4.00;;;;;22.38;68.55;98742.19;4996047;28;45424;-66
2022/09/15 08:38:43;;;;;;;;;5.80;4.20;;;;;22.42;68.01;98748.97;5010704;28;45382;-66
2022/09/15 08:41:17;;;;;;;;;4.80;4.80;;;;;22.47;68.42;98757.41;5012782;28;46575;-66
2022/09/15 08:44:19;;;;;;;;;8.00;5.60;;;;;22.52;68.69;98757.84;4995246;28;45394;-68
2022/09/15 08:46:59;;;;;;;;;5.20;3.40;;;;;22.56;68.53;98760.09;4996874;28;45512;-69
2022/09/15 08:49:30;;;;;;;;;4.20;3.80;;;;;22.64;68.59;98753.97;5010547;28;45422;-61
2022/09/15 08:52:03;;;;;;;;;606.50;418.00;;;;;22.77;68.06;98748.31;5011951;28;46607;-61
2022/09/15 08:54:31;;;;;;;;;7.80;7.80;;;;;22.85;67.06;98754.66;5007321;28;45387;-64
2022/09/15 08:56:59;;;;;;;;;44.50;36.50;;;;;22.92;67.04;98758.44;5008592;28;45481;-63
2022/09/15 08:59:31;;;;;;;;;6.25;5.25;;;;;22.93;66.77;98757.44;5008696;28;45417;-64
2022/09/15 09:02:05;;;;;;;;;6.00;4.00;;;;;22.94;66.78;98755.63;5007253;28;46668;-63
2022/09/15 09:05:00;;;;;;;;;5.60;4.40;;;;;22.92;66.23;98757.59;5013092;28;45496;-63
2022/09/15 09:07:51;;;;;;;;;5.00;5.00;;;;;22.91;66.43;98751.38;4987850;28;45516;-62
2022/09/15 09:10:38;;;;;;;;;7.60;6.00;;;;;22.92;66.57;98754.91;5015002;28;45630;-63
2022/09/15 09:13:28;;;;;;;;;11.75;9.50;;;;;22.91;66.45;98758.59;4997251;28;45606;-63
2022/09/15 09:16:13;;;;;;;;;7.80;5.60;;;;;22.90;66.31;98757.75;5004846;28;45572;-63
2022/09/15 09:18:59;;;;;;;;;8.40;6.80;;;;;22.86;66.34;98755.50;5012349;28;45452;-69
2022/09/15 09:21:36;;;;;;;;;5.40;4.60;;;;;22.84;66.43;98758.31;5012066;28;45459;-68
2022/09/15 09:24:35;;;;;;;;;3.00;2.00;;;;;22.87;66.77;98755.34;5014374;28;46367;-69
2022/09/15 09:27:01;;;;;;;;;5.20;5.00;;;;;22.93;66.33;98749.38;5015053;28;45438;-65
2022/09/15 09:29:38;;;;;;;;;6.75;6.00;;;;;22.99;66.56;98742.53;5015748;28;45480;-69
2022/09/15 09:32:16;;;;;;;;;2.00;2.00;;;;;23.04;66.02;98742.94;5015967;28;45441;-71
2022/09/15 09:34:49;;;;;;;;;5.00;4.00;;;;;23.06;66.00;98746.34;5015393;28;45370;-72
2022/09/15 09:37:16;;;;;;;;;7.00;5.00;;;;;23.09;66.30;98737.13;5015344;28;45323;-69
2022/09/15 09:39:41;;;;;;;;;8.00;6.00;;;;;23.14;66.09;98740.19;5014322;28;45453;-73
2022/09/15 09:42:14;;;;;;;;;16.00;12.00;;;;;23.15;65.60;98737.38;4997377;28;45677;-70
2022/09/15 09:44:40;;;;;;;;;3.60;3.00;;;;;23.15;65.67;98733.81;5015623;28;45384;-69
2022/09/15 09:47:06;;;;;;;;;4.60;4.60;;;;;23.12;66.00;98731.47;5015504;28;45502;-70
2022/09/15 09:49:41;;;;;;;;;73.33;59.33;;;;;23.08;65.95;98730.91;5015420;28;45319;-67
2022/09/15 09:52:06;;;;;;;;;6.00;5.60;;;;;23.06;66.26;98732.06;5014546;28;45359;-66
2022/09/15 09:54:34;;;;;;;;;3.75;3.25;;;;;23.03;65.88;98738.56;5010823;28;46520;-66
2022/09/15 09:57:11;;;;;;;;;4.20;4.20;;;;;23.02;65.87;98722.59;5013088;28;45471;-66
2022/09/15 09:59:45;;;;;;;;;5.60;3.00;;;;;23.02;65.90;98715.38;5013725;28;45486;-66
2022/09/15 10:02:10;;;;;;;;;3.40;2.40;;;;;23.06;66.03;98718.59;5014382;28;45377;-65
2022/09/15 10:04:41;;;;;;;;;4.25;3.25;;;;;23.07;65.06;98714.91;5014318;28;45421;-66
2022/09/15 10:07:07;;;;;;;;;4.60;4.00;;;;;23.07;64.57;98712.22;5013365;28;45419;-66
2022/09/15 10:09:33;;;;;;;;;5.00;5.00;;;;;23.06;64.62;98714.06;4996954;28;45501;-65
2022/09/15 10:12:03;;;;;;;;;5.00;4.00;;;;;23.08;63.82;98705.88;5005591;28;45252;-64
2022/09/15 10:14:41;;;;;;;;;6.00;3.20;;;;;;;;5010300;28;46209;-65
2022/09/15 10:17:18;;;;;;;;;5.20;5.00;;;;;23.12;63.43;98705.41;5015080;28;45339;-64
2022/09/15 10:19:57;;;;;;;;;4.80;4.60;;;;;23.13;63.36;98707.09;5015195;28;45413;-64
2022/09/15 10:22:34;;;;;;;;;5.60;4.00;;;;;23.13;63.59;98703.53;5015109;28;45366;-64
2022/09/15 10:25:11;;;;;;;;;5.80;3.00;;;;;23.11;63.46;98700.19;5013635;28;46630;-65
2022/09/15 10:27:36;;;;;;;;;3.40;2.40;;;;;23.07;63.26;98698.78;5014904;28;45360;-63
2022/09/15 10:30:17;;;;;;;;;4.75;3.75;;;;;23.12;62.40;98700.03;5012735;28;45347;-64
2022/09/15 10:32:43;;;;;;;;;4.20;3.00;;;;;23.16;62.56;98698.72;5014433;28;45561;-63
2022/09/15 10:35:11;;;;;;;;;3.00;3.00;;;;;23.21;61.85;98695.59;5015082;28;45494;-65
2022/09/15 10:37:54;;;;;;;;;5.40;4.40;;;;;23.21;61.94;98699.13;5011376;28;45370;-64
2022/09/15 10:40:36;;;;;;;;;5.80;4.60;;;;;23.18;61.23;98691.34;5012276;28;45398;-63
2022/09/15 10:43:20;;;;;;;;;3.60;3.60;;;;;23.17;61.61;98694.19;4997035;28;45516;-64
2022/09/15 10:46:13;;;;;;;;;3.00;3.00;;;;;23.20;61.84;98694.75;4997333;28;46624;-64
2022/09/15 10:48:44;;;;;;;;;3.00;3.00;;;;;23.22;62.10;98697.28;5003968;28;45506;-63
2022/09/15 10:51:45;;;;;;;;;3.40;3.20;;;;;23.23;61.61;98691.75;4993682;28;45414;-63
2022/09/15 10:54:13;;;;;;;;;3.80;2.80;;;;;23.17;62.27;98681.59;4998597;28;45617;-68
2022/09/15 10:56:43;;;;;;;;;7.00;5.00;;;;;23.22;62.49;98687.38;5003265;28;46608;-66
2022/09/15 10:59:08;;;;;;;;;4.60;3.20;;;;;23.25;62.03;98681.69;5005252;28;45383;-68
2022/09/15 11:02:04;;;;;;;;;4.50;4.50;;;;;23.31;62.09;98673.00;5011001;28;45492;-70
2022/09/15 11:05:00;;;;;;;;;5.00;3.00;;;;;23.39;61.62;98677.63;5014129;28;45446;-67
2022/09/15 11:07:37;;;;;;;;;4.00;2.80;;;;;23.47;61.69;98668.75;4997302;28;47241;-67
2022/09/15 11:10:21;;;;;;;;;3.80;3.80;;;;;23.53;61.08;98666.34;5001115;28;45446;-68
2022/09/15 11:13:16;;;;;;;;;2.40;2.40;;;;;23.59;61.14;98659.50;5028482;28;45335;-61
2022/09/15 11:15:45;;;;;;;;;4.25;4.00;;;;;23.67;61.33;98660.41;5012621;28;45354;-62
2022/09/15 11:18:33;;;;;;;;;6.40;5.80;;;;;23.77;60.71;98654.94;5011155;28;46156;-62
2022/09/15 11:21:18;;;;;;;;;9.60;9.60;;;;;23.89;60.68;98652.84;5009055;28;45375;-62
2022/09/15 11:24:02;;;;;;;;;5.40;5.40;;;;;23.96;60.61;98645.84;5012668;28;45491;-62
2022/09/15 11:26:48;;;;;;;;;4.80;4.00;;;;;24.06;60.25;98648.41;5012174;28;45318;-63
2022/09/15 11:29:59;;;;;;;;;4.40;4.20;;;;;24.20;60.16;98650.53;5013653;28;46236;-62
2022/09/15 11:32:51;;;;;;;;;4.20;4.00;;;;;24.32;59.67;98644.72;5007765;28;45631;-61
2022/09/15 11:35:38;;;;;;;;;6.00;6.00;;;;;24.42;59.83;98641.94;4991213;28;45426;-67
2022/09/15 11:38:29;;;;;;;;;3.80;3.80;;;;;24.54;59.52;98648.72;5000351;28;45889;-67
2022/09/15 11:41:19;;;;;;;;;3.40;3.00;;;;;24.62;58.76;98646.09;5001492;28;45958;-66
2022/09/15 11:43:54;;;;;;;;;10.80;10.80;;;;;24.68;58.86;98637.31;5013327;28;45250;-67
2022/09/15 11:46:30;;;;;;;;;23.50;22.50;;;;;24.78;58.52;98647.16;5013995;28;45469;-68
2022/09/15 11:49:10;;;;;;;;;4.80;3.80;;;;;24.91;58.67;98634.88;4999100;28;45459;-68
2022/09/15 11:51:50;;;;;;;;;14.00;13.00;;;;;25.02;57.70;98639.16;5007518;28;46469;-67
2022/09/15 11:54:28;;;;;;;;;6.20;4.80;;;;;25.12;57.55;98631.78;5008804;28;45288;-64